Flight Track Log - Related Links

Times and Time Zones

All times are in EST time to prevent confusion due to time zone crossing. See the ASQ5740 flight status page for this flight to view local times or setup timezone preferences in your user account.

Time Position Orientation Groundspeed Altitude Reporting Facility
EST Latitude Longitude Course Direction KTS MPH feet Rate Location/Type
Wed 03:00:57 PM 34.9372 -82.1081 80° East 216 249 5,500  Level Atlanta Center
Wed 03:01:00 PM 35.1172 -81.9766 North  Level Estimated
Wed 03:01:57 PM 34.9464 -82.0242 82° East 229 264 7,800  Level Atlanta Center
Wed 03:02:00 PM 35.1909 -81.8955 North  Level Estimated
Wed 03:02:57 PM 34.9997 -81.9622 44° Northeast 236 272 9,900  Level Atlanta Center
Wed 03:03:00 PM 35.2893 -81.9099 353° North  Level FlightAware Approximate
Wed 03:03:57 PM 35.0825 -81.9297 18° North 270 311 11,100  Level Atlanta Center
Wed 03:04:00 PM 35.3621 -81.8272 North  Level Estimated
Wed 03:04:57 PM 35.1703 -81.9375 356° North 285 328 12,800  Level Atlanta Center
Wed 03:05:00 PM 35.4347 -81.7445 80° East  Level Estimated
Wed 03:05:57 PM 35.2642 -81.9300 North 305 351 13,500  Level Atlanta Center
Wed 03:06:57 PM 35.3292 -81.8292 52° Northeast 321 369 14,500 1,200 Climbing Atlanta Center
Wed 03:07:57 PM 35.3769 -81.7056 65° Northeast 365 420 15,900 1,350 Climbing Atlanta Center
Wed 03:08:57 PM 35.4267 -81.5844 63° Northeast 365 420 17,200 1,050 Climbing Atlanta Center
Wed 03:09:57 PM 35.4719 -81.4581 66° East 386 444 18,000 950 Climbing Atlanta Center
Wed 03:10:57 PM 35.5194 -81.3342 65° Northeast 392 451 19,100 850 Climbing Atlanta Center
Wed 03:11:57 PM 35.5689 -81.2072 64° Northeast 404 465 19,700 550 Climbing Atlanta Center
Wed 03:12:57 PM 35.6200 -81.0778 64° Northeast 404 465 20,200 500 Climbing Atlanta Center
Wed 03:13:57 PM 35.6689 -80.9483 65° Northeast 404 465 20,700 550 Climbing Atlanta Center
Wed 03:14:57 PM 35.7200 -80.8236 63° Northeast 404 465 21,300 650 Climbing Atlanta Center
Wed 03:15:57 PM 35.7686 -80.6961 65° Northeast 404 465 22,000 600 Climbing Atlanta Center
Wed 03:16:57 PM 35.8153 -80.5739 65° Northeast 410 472 22,500 591 Climbing Atlanta Center
Wed 03:19:20 PM 35.9397 -80.2586 64° Northeast 406 467 24,000 621 Climbing Washington Center
Wed 03:20:20 PM 35.9867 -80.1281 66° East 411 473 24,600 545 Climbing Washington Center
Wed 03:21:21 PM 36.0394 -80.0000 63° Northeast 411 473 25,100 496 Climbing Washington Center
Wed 03:22:21 PM 36.1022 -79.8828 56° Northeast 411 473 25,600 496 Climbing Washington Center
Wed 03:23:22 PM 36.1667 -79.7653 56° Northeast 406 467 26,100 446 Climbing Washington Center
Wed 03:24:22 PM 36.2356 -79.6478 54° Northeast 418 481 26,500 508 Climbing Washington Center
Wed 03:25:20 PM 36.3019 -79.5303 55° Northeast 413 475 27,100 458 Climbing Washington Center
Wed 03:26:20 PM 36.3508 -79.4397 56° Northeast 408 470 27,400 -50 Climbing Washington Center
Wed 03:27:21 PM 36.4239 -79.3092 55° Northeast 408 470 27,000 -496 Descending Washington Center
Wed 03:28:21 PM 36.4967 -79.1756 56° Northeast 414 476 26,400 -496 Descending Washington Center
Wed 03:29:22 PM 36.5669 -79.0600 53° Northeast 414 476 26,000 -446 Descending Washington Center
Wed 03:30:22 PM 36.6331 -78.9386 56° Northeast 414 476 25,500 -458 Descending Washington Center
Wed 03:31:20 PM 36.6947 -78.8169 58° Northeast 419 482 25,100 -252 Descending Washington Center
Wed 03:32:21 PM 36.7561 -78.7081 55° Northeast 419 482 25,000 -49 Descending Washington Center
Wed 03:33:22 PM 36.8197 -78.5886 56° Northeast 414 476 25,000  Level Washington Center
Wed 03:34:22 PM 36.8972 -78.4878 46° Northeast 409 471 25,000 -51 Level Washington Center
Wed 03:35:20 PM 36.9997 -78.3850 39° Northeast 403 464 24,900 -305 Descending Washington Center
Wed 03:36:20 PM 37.0789 -78.2994 41° Northeast 391 450 24,400 -450 Descending Washington Center
Wed 03:37:20 PM 37.1536 -78.2239 39° Northeast 366 421 24,000 -446 Descending Washington Center
Wed 03:38:21 PM 37.2197 -78.1531 40° Northeast 345 397 23,500 -492 Descending Washington Center
Wed 03:39:22 PM 37.2944 -78.0772 39° Northeast 340 391 23,000 -504 Descending Washington Center
Wed 03:40:20 PM 37.3692 -77.9961 41° Northeast 340 391 22,500 -504 Descending Washington Center
Wed 03:41:21 PM 37.4436 -77.9172 40° Northeast 340 391 22,000 -246 Descending Washington Center
Wed 03:42:22 PM 37.5181 -77.8411 39° Northeast 340 391 22,000  Level Washington Center
Wed 03:43:20 PM 37.6047 -77.7858 27° Northeast 340 391 22,000 -763 Level Washington Center
Wed 03:44:20 PM 37.6892 -77.7331 26° Northeast 340 391 20,500 -1,736 Descending Washington Center
Wed 03:45:21 PM 37.7756 -77.6831 25° Northeast 329 379 18,500 -1,686 Descending Washington Center
Wed 03:46:21 PM 37.8575 -77.6353 25° Northeast 323 372 17,100 -1,600 Descending Washington Center
Wed 03:47:21 PM 37.9378 -77.5875 25° Northeast 316 364 15,300 -1,736 Descending Washington Center
Wed 03:48:22 PM 38.0114 -77.5419 26° Northeast 306 352 13,600 -1,563 Descending Washington Center
Wed 03:49:20 PM 38.0808 -77.5042 23° Northeast 281 323 12,200 -1,462 Descending Washington Center
Wed 03:50:21 PM 38.1503 -77.4664 23° Northeast 268 308 10,700 -1,091 Descending Washington Center
Wed 03:51:21 PM 38.2261 -77.4208 25° Northeast 280 322 10,000 -347 Descending Washington Center
Wed 03:52:22 PM 38.3033 -77.4042 10° North 287 330 10,000 -198 Level Washington Center
Wed 03:53:22 PM 38.3719 -77.4192 350° North 266 306 9,600 -610 Descending Washington Center
Wed 03:54:20 PM 38.4428 -77.4339 351° North 254 292 8,800 -908 Descending Washington Center
Wed 03:55:21 PM 38.5072 -77.4461 352° North 249 287 7,800 -1,041 Descending Washington Center
Wed 03:56:21 PM 38.5736 -77.4586 352° North 244 281 6,700 -793 Descending Washington Center
Wed 03:57:22 PM 38.6297 -77.4678 353° North 224 258 6,200 -527 Descending Washington Center
Wed 03:57:52 PM 38.6667 -77.4667 North 172 198 5,900 -800 Descending Potomac TRACON
Wed 03:58:52 PM 38.7167 -77.4667 360° North 175 201 5,000 -850 Descending Potomac TRACON
Wed 03:59:52 PM 38.7667 -77.4667 360° North 176 203 4,200 -942 Descending Potomac TRACON
Wed 04:00:53 PM 38.8000 -77.4667 360° North 174 200 3,100 -1,041 Descending Potomac TRACON
Wed 04:01:53 PM 38.8500 -77.4667 360° North 169 194 2,100 -900 Descending Potomac TRACON
Wed 04:02:53 PM 38.9000 -77.4667 360° North 134 154 1,300 -800 Descending Potomac TRACON

Login

Don't have an account? Register now (free) for customized features, flight alerts, and more!